Terminal Aerodrome Forecast
Issued by NWS

Home | Current Version | Previous Version | Text Only | Print | Product List | Glossary On
Versions: 1 2 3 4 5 6 7 8 9 10 11 12 13 14 15 16 17 18
000
FTUS46 KPQR 220531
TAFONP
TAF
KONP 220531Z 2206/2306 00000KT P6SM SKC
     FM220900 00000KT 1 1/2SM BR FEW250
     FM221200 00000KT 1/2SM FG SKC
     FM221600 33006KT P6SM SKC
     FM221900 34015G21KT P6SM SKC=

USA.gov is the U.S. government's official web portal to all federal, state and local government web resources and services.